Terminal Aerodrome Forecast
Issued by NWS Wilmington, NC

Home | Current Version | Previous Version | Text Only | Print | Product List | Glossary On
Versions: 1 2 3 4 5 6 7 8 9 10 11 12 13 14 15 16
000
FTUS42 KILM 311700
TAFLBT
TAF
KLBT 311724Z 3118/0118 10009KT P6SM SCT040 SCT120 BKN200
     FM010000 08005KT P6SM VCSH SCT020 BKN150
     FM010900 07004KT 6SM -SHRA BKN020=

USA.gov is the U.S. government's official web portal to all federal, state and local government web resources and services.